sensor_id;sensor_type;location;lat;lon;timestamp;P1;durP1;ratioP1;P2;durP2;ratioP2
40609;SDS011;26316;55.976;37.140;2022-11-20T00:00:27;9.50;;;8.30;;
40609;SDS011;26316;55.976;37.140;2022-11-20T00:02:52;10.05;;;8.63;;
40609;SDS011;26316;55.976;37.140;2022-11-20T00:05:18;9.48;;;8.48;;
40609;SDS011;26316;55.976;37.140;2022-11-20T00:07:46;9.65;;;8.65;;
40609;SDS011;26316;55.976;37.140;2022-11-20T00:10:11;11.25;;;8.77;;
40609;SDS011;26316;55.976;37.140;2022-11-20T00:12:38;10.15;;;9.10;;
40609;SDS011;26316;55.976;37.140;2022-11-20T00:15:04;9.25;;;8.35;;
40609;SDS011;26316;55.976;37.140;2022-11-20T00:17:30;9.85;;;8.85;;
40609;SDS011;26316;55.976;37.140;2022-11-20T00:19:55;9.65;;;8.65;;
40609;SDS011;26316;55.976;37.140;2022-11-20T00:22:21;8.35;;;7.55;;
40609;SDS011;26316;55.976;37.140;2022-11-20T00:24:47;8.90;;;8.05;;
40609;SDS011;26316;55.976;37.140;2022-11-20T00:27:12;8.88;;;7.95;;
40609;SDS011;26316;55.976;37.140;2022-11-20T00:29:38;8.90;;;8.00;;
40609;SDS011;26316;55.976;37.140;2022-11-20T00:32:04;9.27;;;8.30;;
40609;SDS011;26316;55.976;37.140;2022-11-20T00:34:30;8.13;;;7.32;;
40609;SDS011;26316;55.976;37.140;2022-11-20T00:36:55;9.00;;;8.10;;
40609;SDS011;26316;55.976;37.140;2022-11-20T00:39:21;8.07;;;7.28;;
40609;SDS011;26316;55.976;37.140;2022-11-20T00:41:46;9.38;;;7.40;;
40609;SDS011;26316;55.976;37.140;2022-11-20T00:44:12;7.90;;;7.05;;
40609;SDS011;26316;55.976;37.140;2022-11-20T00:46:38;8.13;;;7.35;;
40609;SDS011;26316;55.976;37.140;2022-11-20T00:49:04;9.13;;;8.15;;
40609;SDS011;26316;55.976;37.140;2022-11-20T00:51:29;8.27;;;7.47;;
40609;SDS011;26316;55.976;37.140;2022-11-20T00:53:56;8.98;;;8.07;;
40609;SDS011;26316;55.976;37.140;2022-11-20T00:56:22;8.55;;;7.75;;
40609;SDS011;26316;55.976;37.140;2022-11-20T00:58:48;8.80;;;7.97;;
40609;SDS011;26316;55.976;37.140;2022-11-20T01:01:15;8.57;;;7.78;;
40609;SDS011;26316;55.976;37.140;2022-11-20T01:03:46;8.48;;;7.68;;
40609;SDS011;26316;55.976;37.140;2022-11-20T01:06:17;8.70;;;7.82;;
40609;SDS011;26316;55.976;37.140;2022-11-20T01:08:48;8.05;;;7.35;;
40609;SDS011;26316;55.976;37.140;2022-11-20T01:11:22;9.40;;;8.43;;
40609;SDS011;26316;55.976;37.140;2022-11-20T01:13:50;7.78;;;7.07;;
40609;SDS011;26316;55.976;37.140;2022-11-20T01:18:44;7.93;;;7.20;;
40609;SDS011;26316;55.976;37.140;2022-11-20T01:21:13;8.07;;;7.30;;
40609;SDS011;26316;55.976;37.140;2022-11-20T01:26:09;8.05;;;7.25;;
40609;SDS011;26316;55.976;37.140;2022-11-20T01:28:36;6.80;;;6.22;;
40609;SDS011;26316;55.976;37.140;2022-11-20T01:31:10;7.65;;;6.95;;
40609;SDS011;26316;55.976;37.140;2022-11-20T01:33:41;7.60;;;6.80;;
40609;SDS011;26316;55.976;37.140;2022-11-20T01:36:07;7.55;;;6.85;;
40609;SDS011;26316;55.976;37.140;2022-11-20T01:38:34;7.30;;;6.60;;
40609;SDS011;26316;55.976;37.140;2022-11-20T01:41:00;7.55;;;6.85;;
40609;SDS011;26316;55.976;37.140;2022-11-20T01:43:26;7.07;;;6.38;;
40609;SDS011;26316;55.976;37.140;2022-11-20T01:48:54;6.50;;;5.90;;
40609;SDS011;26316;55.976;37.140;2022-11-20T01:51:48;6.82;;;6.22;;
40609;SDS011;26316;55.976;37.140;2022-11-20T01:54:21;6.90;;;6.20;;
40609;SDS011;26316;55.976;37.140;2022-11-20T01:56:50;7.22;;;6.55;;
40609;SDS011;26316;55.976;37.140;2022-11-20T01:59:17;7.25;;;6.60;;
40609;SDS011;26316;55.976;37.140;2022-11-20T02:01:44;7.20;;;6.50;;
40609;SDS011;26316;55.976;37.140;2022-11-20T02:04:10;6.63;;;6.05;;
40609;SDS011;26316;55.976;37.140;2022-11-20T02:06:46;6.70;;;6.10;;
40609;SDS011;26316;55.976;37.140;2022-11-20T02:09:14;7.53;;;6.85;;
40609;SDS011;26316;55.976;37.140;2022-11-20T02:11:41;7.25;;;6.50;;
40609;SDS011;26316;55.976;37.140;2022-11-20T02:14:06;6.95;;;6.35;;
40609;SDS011;26316;55.976;37.140;2022-11-20T02:16:34;7.57;;;6.88;;
40609;SDS011;26316;55.976;37.140;2022-11-20T02:19:02;6.90;;;6.30;;
40609;SDS011;26316;55.976;37.140;2022-11-20T02:24:17;7.35;;;6.65;;
40609;SDS011;26316;55.976;37.140;2022-11-20T02:26:49;7.45;;;6.75;;
40609;SDS011;26316;55.976;37.140;2022-11-20T02:29:21;7.50;;;6.80;;
40609;SDS011;26316;55.976;37.140;2022-11-20T02:31:50;7.03;;;6.30;;
40609;SDS011;26316;55.976;37.140;2022-11-20T02:34:15;7.38;;;6.68;;
40609;SDS011;26316;55.976;37.140;2022-11-20T02:36:41;7.75;;;7.05;;
40609;SDS011;26316;55.976;37.140;2022-11-20T02:39:07;7.20;;;6.50;;
40609;SDS011;26316;55.976;37.140;2022-11-20T02:41:36;7.32;;;6.63;;
40609;SDS011;26316;55.976;37.140;2022-11-20T02:44:03;7.70;;;6.93;;
40609;SDS011;26316;55.976;37.140;2022-11-20T02:46:30;7.20;;;6.50;;
40609;SDS011;26316;55.976;37.140;2022-11-20T02:48:56;7.82;;;7.13;;
40609;SDS011;26316;55.976;37.140;2022-11-20T02:51:22;5.15;;;4.55;;
40609;SDS011;26316;55.976;37.140;2022-11-20T02:53:48;4.40;;;4.10;;
40609;SDS011;26316;55.976;37.140;2022-11-20T02:56:14;8.55;;;4.57;;
40609;SDS011;26316;55.976;37.140;2022-11-20T02:58:39;4.50;;;4.10;;
40609;SDS011;26316;55.976;37.140;2022-11-20T03:01:05;4.57;;;4.18;;
40609;SDS011;26316;55.976;37.140;2022-11-20T03:03:31;4.55;;;4.15;;
40609;SDS011;26316;55.976;37.140;2022-11-20T03:05:58;4.70;;;4.20;;
40609;SDS011;26316;55.976;37.140;2022-11-20T03:08:24;4.30;;;4.00;;
40609;SDS011;26316;55.976;37.140;2022-11-20T03:10:50;4.38;;;3.97;;
40609;SDS011;26316;55.976;37.140;2022-11-20T03:13:16;5.10;;;3.70;;
40609;SDS011;26316;55.976;37.140;2022-11-20T03:15:41;3.72;;;3.38;;
40609;SDS011;26316;55.976;37.140;2022-11-20T03:18:07;3.72;;;3.42;;
40609;SDS011;26316;55.976;37.140;2022-11-20T03:20:33;3.95;;;3.40;;
40609;SDS011;26316;55.976;37.140;2022-11-20T03:22:59;3.63;;;3.33;;
40609;SDS011;26316;55.976;37.140;2022-11-20T03:25:25;5.72;;;3.20;;
40609;SDS011;26316;55.976;37.140;2022-11-20T03:27:51;3.85;;;3.53;;
40609;SDS011;26316;55.976;37.140;2022-11-20T03:30:17;4.43;;;3.85;;
40609;SDS011;26316;55.976;37.140;2022-11-20T03:32:43;3.40;;;3.10;;
40609;SDS011;26316;55.976;37.140;2022-11-20T03:35:09;3.47;;;3.17;;
40609;SDS011;26316;55.976;37.140;2022-11-20T03:37:35;3.70;;;3.40;;
40609;SDS011;26316;55.976;37.140;2022-11-20T03:40:00;3.50;;;3.20;;
40609;SDS011;26316;55.976;37.140;2022-11-20T03:42:28;4.32;;;3.92;;
40609;SDS011;26316;55.976;37.140;2022-11-20T03:45:13;3.75;;;3.45;;
40609;SDS011;26316;55.976;37.140;2022-11-20T03:47:40;3.47;;;3.13;;
40609;SDS011;26316;55.976;37.140;2022-11-20T03:50:06;5.03;;;3.45;;
40609;SDS011;26316;55.976;37.140;2022-11-20T03:52:32;3.67;;;3.38;;
40609;SDS011;26316;55.976;37.140;2022-11-20T03:54:58;3.72;;;3.33;;
40609;SDS011;26316;55.976;37.140;2022-11-20T03:57:23;3.78;;;3.47;;
40609;SDS011;26316;55.976;37.140;2022-11-20T03:59:49;3.60;;;3.30;;
40609;SDS011;26316;55.976;37.140;2022-11-20T04:02:15;3.58;;;3.28;;
40609;SDS011;26316;55.976;37.140;2022-11-20T04:04:40;4.05;;;3.67;;
40609;SDS011;26316;55.976;37.140;2022-11-20T04:07:06;5.68;;;3.20;;
40609;SDS011;26316;55.976;37.140;2022-11-20T04:09:32;3.40;;;3.10;;
40609;SDS011;26316;55.976;37.140;2022-11-20T04:11:58;3.47;;;3.17;;
40609;SDS011;26316;55.976;37.140;2022-11-20T04:14:23;4.07;;;3.70;;
40609;SDS011;26316;55.976;37.140;2022-11-20T04:16:49;4.20;;;3.40;;
40609;SDS011;26316;55.976;37.140;2022-11-20T04:19:15;3.85;;;3.42;;
40609;SDS011;26316;55.976;37.140;2022-11-20T04:21:42;6.93;;;3.30;;
40609;SDS011;26316;55.976;37.140;2022-11-20T04:24:09;4.00;;;3.60;;
40609;SDS011;26316;55.976;37.140;2022-11-20T04:26:35;3.58;;;3.35;;
40609;SDS011;26316;55.976;37.140;2022-11-20T04:29:02;3.60;;;3.30;;
40609;SDS011;26316;55.976;37.140;2022-11-20T04:31:29;4.38;;;3.88;;
40609;SDS011;26316;55.976;37.140;2022-11-20T04:33:59;4.28;;;3.90;;
40609;SDS011;26316;55.976;37.140;2022-11-20T04:36:26;3.45;;;3.15;;
40609;SDS011;26316;55.976;37.140;2022-11-20T04:38:53;4.25;;;3.85;;
40609;SDS011;26316;55.976;37.140;2022-11-20T04:41:20;4.00;;;3.63;;
40609;SDS011;26316;55.976;37.140;2022-11-20T04:43:47;4.57;;;4.03;;
40609;SDS011;26316;55.976;37.140;2022-11-20T04:46:14;3.97;;;3.60;;
40609;SDS011;26316;55.976;37.140;2022-11-20T04:48:40;4.05;;;3.65;;
40609;SDS011;26316;55.976;37.140;2022-11-20T04:51:06;4.55;;;3.55;;
40609;SDS011;26316;55.976;37.140;2022-11-20T04:53:32;4.55;;;4.07;;
40609;SDS011;26316;55.976;37.140;2022-11-20T04:56:07;4.55;;;4.10;;
40609;SDS011;26316;55.976;37.140;2022-11-20T04:58:35;4.57;;;4.18;;
40609;SDS011;26316;55.976;37.140;2022-11-20T05:01:04;4.05;;;3.70;;
40609;SDS011;26316;55.976;37.140;2022-11-20T05:03:37;3.97;;;3.58;;
40609;SDS011;26316;55.976;37.140;2022-11-20T05:06:04;6.07;;;4.18;;
40609;SDS011;26316;55.976;37.140;2022-11-20T05:08:31;4.88;;;3.53;;
40609;SDS011;26316;55.976;37.140;2022-11-20T05:11:04;4.20;;;3.80;;
40609;SDS011;26316;55.976;37.140;2022-11-20T05:13:30;3.90;;;3.60;;
40609;SDS011;26316;55.976;37.140;2022-11-20T05:16:00;4.60;;;4.20;;
40609;SDS011;26316;55.976;37.140;2022-11-20T05:18:27;4.13;;;3.80;;
40609;SDS011;26316;55.976;37.140;2022-11-20T05:20:56;6.45;;;4.55;;
40609;SDS011;26316;55.976;37.140;2022-11-20T05:23:23;5.07;;;4.57;;
40609;SDS011;26316;55.976;37.140;2022-11-20T05:25:51;4.07;;;3.78;;
40609;SDS011;26316;55.976;37.140;2022-11-20T05:28:17;3.97;;;3.67;;
40609;SDS011;26316;55.976;37.140;2022-11-20T05:30:43;4.45;;;4.05;;
40609;SDS011;26316;55.976;37.140;2022-11-20T05:33:09;7.63;;;4.18;;
40609;SDS011;26316;55.976;37.140;2022-11-20T05:35:35;4.47;;;4.07;;
40609;SDS011;26316;55.976;37.140;2022-11-20T05:38:00;3.97;;;3.67;;
40609;SDS011;26316;55.976;37.140;2022-11-20T05:40:26;4.60;;;4.20;;
40609;SDS011;26316;55.976;37.140;2022-11-20T05:42:52;6.03;;;4.07;;
40609;SDS011;26316;55.976;37.140;2022-11-20T05:45:17;5.18;;;4.00;;
40609;SDS011;26316;55.976;37.140;2022-11-20T05:47:43;7.25;;;4.43;;
40609;SDS011;26316;55.976;37.140;2022-11-20T05:50:09;15.43;;;12.20;;
40609;SDS011;26316;55.976;37.140;2022-11-20T05:52:35;4.90;;;4.40;;
40609;SDS011;26316;55.976;37.140;2022-11-20T05:55:00;6.95;;;4.55;;
40609;SDS011;26316;55.976;37.140;2022-11-20T05:57:28;5.65;;;4.72;;
40609;SDS011;26316;55.976;37.140;2022-11-20T05:59:54;6.40;;;4.60;;
40609;SDS011;26316;55.976;37.140;2022-11-20T06:02:20;4.63;;;4.22;;
40609;SDS011;26316;55.976;37.140;2022-11-20T06:04:45;6.05;;;4.72;;
40609;SDS011;26316;55.976;37.140;2022-11-20T06:07:11;5.03;;;4.35;;
40609;SDS011;26316;55.976;37.140;2022-11-20T06:09:37;5.60;;;4.13;;
40609;SDS011;26316;55.976;37.140;2022-11-20T06:12:03;4.65;;;4.25;;
40609;SDS011;26316;55.976;37.140;2022-11-20T06:14:28;5.85;;;4.15;;
40609;SDS011;26316;55.976;37.140;2022-11-20T06:16:54;7.30;;;4.25;;
40609;SDS011;26316;55.976;37.140;2022-11-20T06:19:20;5.97;;;4.80;;
40609;SDS011;26316;55.976;37.140;2022-11-20T06:21:47;5.30;;;4.80;;
40609;SDS011;26316;55.976;37.140;2022-11-20T06:24:14;5.03;;;4.35;;
40609;SDS011;26316;55.976;37.140;2022-11-20T06:26:40;5.55;;;4.82;;
40609;SDS011;26316;55.976;37.140;2022-11-20T06:29:06;5.28;;;4.78;;
40609;SDS011;26316;55.976;37.140;2022-11-20T06:31:32;4.82;;;4.40;;
40609;SDS011;26316;55.976;37.140;2022-11-20T06:34:06;5.63;;;4.63;;
40609;SDS011;26316;55.976;37.140;2022-11-20T06:36:32;5.15;;;4.65;;
40609;SDS011;26316;55.976;37.140;2022-11-20T06:38:58;6.22;;;5.05;;
40609;SDS011;26316;55.976;37.140;2022-11-20T06:41:24;6.90;;;4.97;;
40609;SDS011;26316;55.976;37.140;2022-11-20T06:43:50;5.15;;;4.65;;
40609;SDS011;26316;55.976;37.140;2022-11-20T06:46:16;5.90;;;5.13;;
40609;SDS011;26316;55.976;37.140;2022-11-20T06:48:43;6.93;;;4.93;;
40609;SDS011;26316;55.976;37.140;2022-11-20T06:51:09;7.15;;;5.30;;
40609;SDS011;26316;55.976;37.140;2022-11-20T06:53:35;6.18;;;5.10;;
40609;SDS011;26316;55.976;37.140;2022-11-20T06:56:02;5.82;;;5.22;;
40609;SDS011;26316;55.976;37.140;2022-11-20T06:58:28;5.35;;;4.85;;
40609;SDS011;26316;55.976;37.140;2022-11-20T07:00:58;5.57;;;5.07;;
40609;SDS011;26316;55.976;37.140;2022-11-20T07:03:30;5.55;;;5.03;;
40609;SDS011;26316;55.976;37.140;2022-11-20T07:05:56;6.13;;;5.43;;
40609;SDS011;26316;55.976;37.140;2022-11-20T07:08:23;7.00;;;4.95;;
40609;SDS011;26316;55.976;37.140;2022-11-20T07:10:49;5.43;;;4.90;;
40609;SDS011;26316;55.976;37.140;2022-11-20T07:13:15;5.45;;;4.95;;
40609;SDS011;26316;55.976;37.140;2022-11-20T07:15:41;5.45;;;4.95;;
40609;SDS011;26316;55.976;37.140;2022-11-20T07:18:07;5.97;;;5.38;;
40609;SDS011;26316;55.976;37.140;2022-11-20T07:20:32;6.10;;;5.50;;
40609;SDS011;26316;55.976;37.140;2022-11-20T07:22:58;5.53;;;5.00;;
40609;SDS011;26316;55.976;37.140;2022-11-20T07:25:24;5.65;;;5.15;;
40609;SDS011;26316;55.976;37.140;2022-11-20T07:27:51;7.07;;;5.45;;
40609;SDS011;26316;55.976;37.140;2022-11-20T07:30:17;5.50;;;5.00;;
40609;SDS011;26316;55.976;37.140;2022-11-20T07:32:47;6.05;;;5.40;;
40609;SDS011;26316;55.976;37.140;2022-11-20T07:35:15;8.73;;;5.53;;
40609;SDS011;26316;55.976;37.140;2022-11-20T07:37:41;6.35;;;5.55;;
40609;SDS011;26316;55.976;37.140;2022-11-20T07:40:07;5.85;;;5.22;;
40609;SDS011;26316;55.976;37.140;2022-11-20T07:42:33;6.18;;;5.50;;
40609;SDS011;26316;55.976;37.140;2022-11-20T07:45:00;7.68;;;6.25;;
40609;SDS011;26316;55.976;37.140;2022-11-20T07:47:28;7.00;;;5.95;;
40609;SDS011;26316;55.976;37.140;2022-11-20T07:49:54;7.53;;;6.10;;
40609;SDS011;26316;55.976;37.140;2022-11-20T07:52:19;8.45;;;6.60;;
40609;SDS011;26316;55.976;37.140;2022-11-20T07:54:45;9.07;;;6.57;;
40609;SDS011;26316;55.976;37.140;2022-11-20T07:57:11;7.85;;;6.60;;
40609;SDS011;26316;55.976;37.140;2022-11-20T07:59:37;7.80;;;6.47;;
40609;SDS011;26316;55.976;37.140;2022-11-20T08:02:04;8.43;;;6.47;;
40609;SDS011;26316;55.976;37.140;2022-11-20T08:04:29;16.73;;;7.25;;
40609;SDS011;26316;55.976;37.140;2022-11-20T08:06:55;8.90;;;6.53;;
40609;SDS011;26316;55.976;37.140;2022-11-20T08:09:21;18.65;;;8.25;;
40609;SDS011;26316;55.976;37.140;2022-11-20T08:11:47;10.43;;;8.10;;
40609;SDS011;26316;55.976;37.140;2022-11-20T08:14:31;11.40;;;9.15;;
40609;SDS011;26316;55.976;37.140;2022-11-20T08:16:57;12.18;;;9.65;;
40609;SDS011;26316;55.976;37.140;2022-11-20T08:19:23;11.90;;;9.55;;
40609;SDS011;26316;55.976;37.140;2022-11-20T08:21:48;10.93;;;9.23;;
40609;SDS011;26316;55.976;37.140;2022-11-20T08:24:14;10.52;;;8.63;;
40609;SDS011;26316;55.976;37.140;2022-11-20T08:26:40;11.18;;;9.15;;
40609;SDS011;26316;55.976;37.140;2022-11-20T08:29:06;12.50;;;10.43;;
40609;SDS011;26316;55.976;37.140;2022-11-20T08:31:32;13.07;;;8.88;;
40609;SDS011;26316;55.976;37.140;2022-11-20T08:33:58;10.40;;;9.23;;
40609;SDS011;26316;55.976;37.140;2022-11-20T08:36:24;10.07;;;8.93;;
40609;SDS011;26316;55.976;37.140;2022-11-20T08:38:51;11.50;;;10.27;;
40609;SDS011;26316;55.976;37.140;2022-11-20T08:41:17;13.43;;;10.00;;
40609;SDS011;26316;55.976;37.140;2022-11-20T08:43:50;12.00;;;10.43;;
40609;SDS011;26316;55.976;37.140;2022-11-20T08:46:16;13.02;;;11.00;;
40609;SDS011;26316;55.976;37.140;2022-11-20T08:48:42;11.85;;;10.60;;
40609;SDS011;26316;55.976;37.140;2022-11-20T08:51:08;12.93;;;10.40;;
40609;SDS011;26316;55.976;37.140;2022-11-20T08:53:34;24.05;;;12.65;;
40609;SDS011;26316;55.976;37.140;2022-11-20T08:56:00;12.98;;;10.93;;
40609;SDS011;26316;55.976;37.140;2022-11-20T08:58:26;12.55;;;10.95;;
40609;SDS011;26316;55.976;37.140;2022-11-20T09:00:52;13.25;;;11.80;;
40609;SDS011;26316;55.976;37.140;2022-11-20T09:03:18;15.45;;;10.88;;
40609;SDS011;26316;55.976;37.140;2022-11-20T09:05:44;16.42;;;12.48;;
40609;SDS011;26316;55.976;37.140;2022-11-20T09:08:10;14.88;;;12.32;;
40609;SDS011;26316;55.976;37.140;2022-11-20T09:10:36;17.70;;;12.48;;
40609;SDS011;26316;55.976;37.140;2022-11-20T09:13:05;17.85;;;13.02;;
40609;SDS011;26316;55.976;37.140;2022-11-20T09:15:31;16.42;;;12.50;;
40609;SDS011;26316;55.976;37.140;2022-11-20T09:17:57;18.05;;;12.10;;
40609;SDS011;26316;55.976;37.140;2022-11-20T09:20:24;17.00;;;12.57;;
40609;SDS011;26316;55.976;37.140;2022-11-20T09:22:51;15.32;;;12.02;;
40609;SDS011;26316;55.976;37.140;2022-11-20T09:25:17;18.92;;;12.93;;
40609;SDS011;26316;55.976;37.140;2022-11-20T09:27:43;16.42;;;13.43;;
40609;SDS011;26316;55.976;37.140;2022-11-20T09:30:11;15.82;;;13.27;;
40609;SDS011;26316;55.976;37.140;2022-11-20T09:32:38;17.20;;;13.55;;
40609;SDS011;26316;55.976;37.140;2022-11-20T09:35:04;16.00;;;13.13;;
40609;SDS011;26316;55.976;37.140;2022-11-20T09:37:30;18.30;;;13.45;;
40609;SDS011;26316;55.976;37.140;2022-11-20T09:39:56;17.10;;;12.75;;
40609;SDS011;26316;55.976;37.140;2022-11-20T09:51:21;15.80;;;13.98;;
40609;SDS011;26316;55.976;37.140;2022-11-20T09:56:39;15.98;;;13.85;;
40609;SDS011;26316;55.976;37.140;2022-11-20T10:02:48;20.45;;;15.90;;
40609;SDS011;26316;55.976;37.140;2022-11-20T10:05:00;21.02;;;16.27;;
40609;SDS011;26316;55.976;37.140;2022-11-20T10:07:30;28.42;;;17.05;;
40609;SDS011;26316;55.976;37.140;2022-11-20T10:10:13;23.67;;;16.52;;
40609;SDS011;26316;55.976;37.140;2022-11-20T10:17:58;24.52;;;17.98;;
40609;SDS011;26316;55.976;37.140;2022-11-20T10:23:59;22.08;;;17.33;;
40609;SDS011;26316;55.976;37.140;2022-11-20T10:29:19;24.73;;;17.85;;
40609;SDS011;26316;55.976;37.140;2022-11-20T10:31:51;22.17;;;18.35;;
40609;SDS011;26316;55.976;37.140;2022-11-20T10:34:21;20.83;;;16.50;;
40609;SDS011;26316;55.976;37.140;2022-11-20T10:37:13;14.57;;;11.45;;
40609;SDS011;26316;55.976;37.140;2022-11-20T10:40:17;13.90;;;9.57;;
40609;SDS011;26316;55.976;37.140;2022-11-20T10:45:19;11.65;;;9.18;;
40609;SDS011;26316;55.976;37.140;2022-11-20T10:47:54;14.02;;;9.20;;
40609;SDS011;26316;55.976;37.140;2022-11-20T10:50:32;13.30;;;8.70;;
40609;SDS011;26316;55.976;37.140;2022-11-20T10:53:05;12.13;;;8.45;;
40609;SDS011;26316;55.976;37.140;2022-11-20T10:55:54;9.50;;;7.25;;
40609;SDS011;26316;55.976;37.140;2022-11-20T10:58:28;10.95;;;6.88;;
40609;SDS011;26316;55.976;37.140;2022-11-20T11:01:14;8.95;;;6.38;;
40609;SDS011;26316;55.976;37.140;2022-11-20T11:03:44;9.02;;;6.65;;
40609;SDS011;26316;55.976;37.140;2022-11-20T11:08:58;7.68;;;6.43;;
40609;SDS011;26316;55.976;37.140;2022-11-20T11:11:27;10.60;;;6.60;;
40609;SDS011;26316;55.976;37.140;2022-11-20T11:14:06;7.90;;;5.72;;
40609;SDS011;26316;55.976;37.140;2022-11-20T11:16:40;9.02;;;6.35;;
40609;SDS011;26316;55.976;37.140;2022-11-20T11:21:48;6.65;;;5.40;;
40609;SDS011;26316;55.976;37.140;2022-11-20T11:24:34;7.18;;;6.15;;
40609;SDS011;26316;55.976;37.140;2022-11-20T11:27:01;7.40;;;5.50;;
40609;SDS011;26316;55.976;37.140;2022-11-20T11:29:36;7.85;;;6.18;;
40609;SDS011;26316;55.976;37.140;2022-11-20T11:32:05;7.20;;;6.07;;
40609;SDS011;26316;55.976;37.140;2022-11-20T11:34:38;8.25;;;5.65;;
40609;SDS011;26316;55.976;37.140;2022-11-20T11:37:04;7.00;;;5.22;;
40609;SDS011;26316;55.976;37.140;2022-11-20T11:39:35;8.23;;;6.15;;
40609;SDS011;26316;55.976;37.140;2022-11-20T11:42:03;6.43;;;5.47;;
40609;SDS011;26316;55.976;37.140;2022-11-20T11:44:33;7.53;;;6.18;;
40609;SDS011;26316;55.976;37.140;2022-11-20T11:47:51;8.70;;;6.03;;
40609;SDS011;26316;55.976;37.140;2022-11-20T11:50:26;7.60;;;6.00;;
40609;SDS011;26316;55.976;37.140;2022-11-20T11:53:09;7.10;;;5.68;;
40609;SDS011;26316;55.976;37.140;2022-11-20T11:55:58;7.13;;;5.15;;
40609;SDS011;26316;55.976;37.140;2022-11-20T12:07:06;8.55;;;5.70;;
40609;SDS011;26316;55.976;37.140;2022-11-20T12:10:02;8.70;;;5.78;;
40609;SDS011;26316;55.976;37.140;2022-11-20T12:12:34;6.18;;;5.57;;
40609;SDS011;26316;55.976;37.140;2022-11-20T12:15:02;7.05;;;5.55;;
40609;SDS011;26316;55.976;37.140;2022-11-20T12:17:29;8.10;;;5.60;;
40609;SDS011;26316;55.976;37.140;2022-11-20T12:19:55;7.53;;;5.00;;
40609;SDS011;26316;55.976;37.140;2022-11-20T12:30:39;7.40;;;5.80;;
40609;SDS011;26316;55.976;37.140;2022-11-20T12:33:24;5.50;;;5.00;;
40609;SDS011;26316;55.976;37.140;2022-11-20T12:44:39;8.98;;;6.40;;
40609;SDS011;26316;55.976;37.140;2022-11-20T12:50:31;9.20;;;7.13;;
40609;SDS011;26316;55.976;37.140;2022-11-20T12:55:32;10.57;;;7.68;;
40609;SDS011;26316;55.976;37.140;2022-11-20T13:00:34;14.35;;;8.60;;
40609;SDS011;26316;55.976;37.140;2022-11-20T13:06:10;11.88;;;7.95;;
40609;SDS011;26316;55.976;37.140;2022-11-20T13:08:40;15.40;;;8.68;;
40609;SDS011;26316;55.976;37.140;2022-11-20T13:19:20;12.43;;;7.32;;
40609;SDS011;26316;55.976;37.140;2022-11-20T13:21:47;10.88;;;7.13;;
40609;SDS011;26316;55.976;37.140;2022-11-20T13:29:34;8.68;;;6.82;;
40609;SDS011;26316;55.976;37.140;2022-11-20T13:32:22;8.68;;;7.13;;
40609;SDS011;26316;55.976;37.140;2022-11-20T13:37:37;8.98;;;6.50;;
40609;SDS011;26316;55.976;37.140;2022-11-20T13:42:39;7.95;;;6.53;;
40609;SDS011;26316;55.976;37.140;2022-11-20T13:47:52;6.85;;;5.30;;
40609;SDS011;26316;55.976;37.140;2022-11-20T13:50:18;8.82;;;5.93;;
40609;SDS011;26316;55.976;37.140;2022-11-20T13:52:52;11.27;;;6.07;;
40609;SDS011;26316;55.976;37.140;2022-11-20T14:00:32;14.50;;;5.93;;
40609;SDS011;26316;55.976;37.140;2022-11-20T14:06:19;6.43;;;5.72;;
40609;SDS011;26316;55.976;37.140;2022-11-20T14:08:56;8.52;;;5.82;;
40609;SDS011;26316;55.976;37.140;2022-11-20T14:11:24;7.30;;;5.72;;
40609;SDS011;26316;55.976;37.140;2022-11-20T14:14:33;6.70;;;6.00;;
40609;SDS011;26316;55.976;37.140;2022-11-20T14:16:44;6.82;;;5.90;;
40609;SDS011;26316;55.976;37.140;2022-11-20T14:19:31;6.72;;;5.88;;
40609;SDS011;26316;55.976;37.140;2022-11-20T14:22:07;6.90;;;5.72;;
40609;SDS011;26316;55.976;37.140;2022-11-20T14:25:00;7.15;;;5.32;;
40609;SDS011;26316;55.976;37.140;2022-11-20T14:27:28;6.15;;;5.55;;
40609;SDS011;26316;55.976;37.140;2022-11-20T14:29:54;7.28;;;5.30;;
40609;SDS011;26316;55.976;37.140;2022-11-20T14:32:21;7.82;;;6.07;;
40609;SDS011;26316;55.976;37.140;2022-11-20T14:37:23;6.75;;;5.50;;
40609;SDS011;26316;55.976;37.140;2022-11-20T14:39:54;8.88;;;5.55;;
40609;SDS011;26316;55.976;37.140;2022-11-20T14:42:27;6.45;;;5.75;;
40609;SDS011;26316;55.976;37.140;2022-11-20T14:44:54;5.75;;;5.15;;
40609;SDS011;26316;55.976;37.140;2022-11-20T14:47:23;6.30;;;5.63;;
40609;SDS011;26316;55.976;37.140;2022-11-20T14:49:58;6.72;;;6.03;;
40609;SDS011;26316;55.976;37.140;2022-11-20T14:52:26;5.70;;;5.15;;
40609;SDS011;26316;55.976;37.140;2022-11-20T14:54:53;7.07;;;5.40;;
40609;SDS011;26316;55.976;37.140;2022-11-20T14:57:24;7.60;;;5.35;;
40609;SDS011;26316;55.976;37.140;2022-11-20T14:59:51;5.97;;;4.90;;
40609;SDS011;26316;55.976;37.140;2022-11-20T15:02:17;5.90;;;5.18;;
40609;SDS011;26316;55.976;37.140;2022-11-20T15:04:47;6.00;;;5.43;;
40609;SDS011;26316;55.976;37.140;2022-11-20T15:07:22;6.40;;;5.68;;
40609;SDS011;26316;55.976;37.140;2022-11-20T15:10:50;7.45;;;5.75;;
40609;SDS011;26316;55.976;37.140;2022-11-20T15:12:50;6.68;;;6.07;;
40609;SDS011;26316;55.976;37.140;2022-11-20T15:15:20;7.60;;;5.35;;
40609;SDS011;26316;55.976;37.140;2022-11-20T15:17:49;6.00;;;5.40;;
40609;SDS011;26316;55.976;37.140;2022-11-20T15:20:15;7.63;;;6.03;;
40609;SDS011;26316;55.976;37.140;2022-11-20T15:22:42;6.82;;;6.13;;
40609;SDS011;26316;55.976;37.140;2022-11-20T15:25:17;10.15;;;5.80;;
40609;SDS011;26316;55.976;37.140;2022-11-20T15:27:44;6.53;;;5.85;;
40609;SDS011;26316;55.976;37.140;2022-11-20T15:30:17;7.38;;;6.47;;
40609;SDS011;26316;55.976;37.140;2022-11-20T15:32:44;8.30;;;5.68;;
40609;SDS011;26316;55.976;37.140;2022-11-20T15:35:11;6.72;;;6.03;;
40609;SDS011;26316;55.976;37.140;2022-11-20T15:37:37;6.63;;;5.90;;
40609;SDS011;26316;55.976;37.140;2022-11-20T15:40:04;6.40;;;5.15;;
40609;SDS011;26316;55.976;37.140;2022-11-20T15:42:31;7.75;;;6.90;;
40609;SDS011;26316;55.976;37.140;2022-11-20T15:44:57;7.82;;;6.47;;
40609;SDS011;26316;55.976;37.140;2022-11-20T15:47:24;13.10;;;7.40;;
40609;SDS011;26316;55.976;37.140;2022-11-20T15:49:59;7.95;;;6.90;;
40609;SDS011;26316;55.976;37.140;2022-11-20T15:52:25;7.53;;;6.10;;
40609;SDS011;26316;55.976;37.140;2022-11-20T15:54:50;7.07;;;6.13;;
40609;SDS011;26316;55.976;37.140;2022-11-20T15:57:16;7.72;;;6.05;;
40609;SDS011;26316;55.976;37.140;2022-11-20T15:59:42;8.50;;;6.32;;
40609;SDS011;26316;55.976;37.140;2022-11-20T16:02:11;10.85;;;5.82;;
40609;SDS011;26316;55.976;37.140;2022-11-20T16:04:37;8.63;;;5.38;;
40609;SDS011;26316;55.976;37.140;2022-11-20T16:07:03;8.82;;;6.28;;
40609;SDS011;26316;55.976;37.140;2022-11-20T16:09:29;7.80;;;5.70;;
40609;SDS011;26316;55.976;37.140;2022-11-20T16:11:55;8.68;;;5.88;;
40609;SDS011;26316;55.976;37.140;2022-11-20T16:14:21;6.65;;;5.65;;
40609;SDS011;26316;55.976;37.140;2022-11-20T16:17:05;6.78;;;5.32;;
40609;SDS011;26316;55.976;37.140;2022-11-20T16:19:31;7.80;;;5.35;;
40609;SDS011;26316;55.976;37.140;2022-11-20T16:21:59;9.73;;;6.72;;
40609;SDS011;26316;55.976;37.140;2022-11-20T16:24:28;8.13;;;5.97;;
40609;SDS011;26316;55.976;37.140;2022-11-20T16:26:54;9.82;;;6.88;;
40609;SDS011;26316;55.976;37.140;2022-11-20T16:29:20;8.60;;;7.32;;
40609;SDS011;26316;55.976;37.140;2022-11-20T16:31:46;8.05;;;7.10;;
40609;SDS011;26316;55.976;37.140;2022-11-20T16:34:12;8.30;;;6.95;;